createdAt,value
2022-11-27T00:02:10.823Z,21.31
2022-11-27T00:05:13.924Z,21.29
2022-11-27T00:08:16.912Z,21.30
2022-11-27T00:11:22.610Z,21.29
2022-11-27T00:14:25.724Z,21.28
2022-11-27T00:17:30.199Z,21.30
2022-11-27T00:20:33.861Z,21.25
2022-11-27T00:23:37.291Z,21.28
2022-11-27T00:26:40.432Z,21.29
2022-11-27T00:29:43.896Z,21.24
2022-11-27T00:32:48.348Z,21.28
2022-11-27T00:35:51.467Z,21.28
2022-11-27T00:38:54.598Z,21.23
2022-11-27T00:41:58.003Z,21.26
2022-11-27T00:45:01.099Z,21.26
2022-11-27T00:48:06.180Z,21.26
2022-11-27T00:51:11.754Z,21.25
2022-11-27T00:54:14.819Z,21.23
2022-11-27T00:57:17.884Z,21.25
2022-11-27T01:00:21.668Z,21.25
2022-11-27T01:03:26.810Z,21.25
2022-11-27T01:06:30.961Z,21.25
2022-11-27T01:09:34.016Z,21.25
2022-11-27T01:12:37.087Z,21.19
2022-11-27T01:15:40.133Z,21.25
2022-11-27T01:18:46.298Z,21.22
2022-11-27T01:21:49.315Z,21.25
2022-11-27T01:24:52.389Z,21.25
2022-11-27T01:27:55.382Z,21.24
2022-11-27T01:30:58.460Z,21.26
2022-11-27T01:34:05.266Z,21.25
2022-11-27T01:37:08.399Z,21.25
2022-11-27T01:40:11.922Z,21.26
2022-11-27T01:43:16.540Z,21.22
2022-11-27T01:46:29.574Z,21.23
2022-11-27T01:49:36.703Z,21.24
2022-11-27T01:52:44.433Z,21.25
2022-11-27T01:55:54.373Z,21.25
2022-11-27T01:58:59.588Z,21.23
2022-11-27T02:02:04.351Z,21.24
2022-11-27T02:05:09.668Z,21.03
2022-11-27T02:08:15.228Z,21.22
2022-11-27T02:11:29.504Z,21.24
2022-11-27T02:14:41.296Z,21.24
2022-11-27T02:17:51.157Z,21.23
2022-11-27T02:21:06.652Z,21.24
2022-11-27T02:24:27.520Z,21.19
2022-11-27T02:27:57.930Z,21.22
2022-11-27T02:31:07.551Z,21.21
2022-11-27T02:34:27.124Z,21.22
2022-11-27T02:37:36.477Z,21.16
2022-11-27T02:40:45.608Z,21.20
2022-11-27T02:43:51.651Z,21.19
2022-11-27T02:46:56.881Z,21.20
2022-11-27T02:50:02.132Z,21.18
2022-11-27T02:53:08.704Z,21.20
2022-11-27T02:56:16.514Z,21.19
2022-11-27T02:59:21.153Z,21.21
2022-11-27T03:02:30.939Z,21.18
2022-11-27T03:05:38.594Z,21.19
2022-11-27T03:08:50.849Z,21.18
2022-11-27T03:11:54.542Z,21.19
2022-11-27T03:14:57.677Z,21.20
2022-11-27T03:18:11.004Z,21.19
2022-11-27T03:21:24.121Z,21.14
2022-11-27T03:24:29.012Z,21.20
2022-11-27T03:27:36.728Z,21.19
2022-11-27T03:30:42.647Z,21.15
2022-11-27T03:33:47.667Z,21.20
2022-11-27T03:36:51.038Z,21.19
2022-11-27T03:39:54.428Z,21.15
2022-11-27T03:43:05.024Z,21.18
2022-11-27T03:46:12.900Z,21.19
2022-11-27T03:49:25.727Z,21.18
2022-11-27T03:52:37.174Z,21.18
2022-11-27T03:55:50.893Z,21.11
2022-11-27T03:58:58.043Z,21.11
2022-11-27T04:02:01.050Z,21.18
2022-11-27T04:05:05.825Z,21.17
2022-11-27T04:08:08.821Z,21.19
2022-11-27T04:11:11.885Z,21.19
2022-11-27T04:14:14.877Z,21.17
2022-11-27T04:17:17.844Z,21.16
2022-11-27T04:20:22.618Z,21.15
2022-11-27T04:23:25.658Z,21.15
2022-11-27T04:26:28.719Z,21.11
2022-11-27T04:29:31.735Z,21.14
2022-11-27T04:32:34.869Z,21.14
2022-11-27T04:35:39.369Z,21.12
2022-11-27T04:38:42.345Z,21.13
2022-11-27T04:41:45.428Z,21.11
2022-11-27T04:44:48.544Z,21.08
2022-11-27T04:47:51.593Z,21.13
2022-11-27T04:50:57.346Z,21.10
2022-11-27T04:54:00.418Z,21.10
2022-11-27T04:57:03.920Z,21.11
2022-11-27T05:00:08.856Z,21.11
2022-11-27T05:03:12.322Z,21.11
2022-11-27T05:09:37.946Z,21.10
2022-11-27T05:12:40.932Z,21.01
2022-11-27T05:15:44.947Z,21.10
2022-11-27T05:18:48.222Z,21.12
2022-11-27T05:21:53.504Z,21.11
2022-11-27T05:24:56.535Z,21.11
2022-11-27T05:27:59.661Z,21.07
2022-11-27T05:31:02.841Z,21.09
2022-11-27T05:34:06.359Z,21.10
2022-11-27T05:37:16.451Z,21.06
2022-11-27T05:40:22.336Z,21.07
2022-11-27T05:43:25.306Z,21.09
2022-11-27T05:46:28.388Z,21.08
2022-11-27T05:49:31.442Z,21.03
2022-11-27T05:52:36.106Z,21.09
2022-11-27T05:55:39.268Z,21.02
2022-11-27T05:58:43.879Z,21.08
2022-11-27T06:01:47.008Z,21.10
2022-11-27T06:04:50.030Z,21.11
2022-11-27T06:07:54.601Z,21.09
2022-11-27T06:10:57.592Z,21.10
2022-11-27T06:14:00.685Z,21.09
2022-11-27T06:17:04.050Z,21.06
2022-11-27T06:20:08.815Z,21.07
2022-11-27T06:23:13.304Z,21.08
2022-11-27T06:29:39.725Z,21.09
2022-11-27T06:32:42.772Z,21.08
2022-11-27T06:39:09.679Z,21.04
2022-11-27T06:42:13.016Z,21.09
2022-11-27T06:45:16.156Z,21.08
2022-11-27T06:48:19.284Z,21.09
2022-11-27T06:51:23.887Z,21.10
2022-11-27T06:54:28.401Z,21.11
2022-11-27T06:57:31.484Z,21.12
2022-11-27T07:00:34.607Z,21.11
2022-11-27T07:03:37.671Z,21.13
2022-11-27T07:06:41.307Z,21.12
2022-11-27T07:09:45.761Z,21.13
2022-11-27T07:12:48.846Z,21.14
2022-11-27T07:15:51.902Z,21.14
2022-11-27T07:18:57.253Z,21.16
2022-11-27T07:22:00.394Z,21.15
2022-11-27T07:25:05.335Z,21.15
2022-11-27T07:28:08.794Z,21.18
2022-11-27T07:31:12.920Z,21.17
2022-11-27T07:34:21.233Z,21.17
2022-11-27T07:37:24.866Z,21.16
2022-11-27T07:40:29.280Z,21.10
2022-11-27T07:43:33.347Z,21.16
2022-11-27T07:46:36.451Z,21.19
2022-11-27T07:49:39.611Z,21.19
2022-11-27T07:52:43.815Z,21.19
2022-11-27T07:55:48.712Z,21.19
2022-11-27T07:58:51.886Z,21.08
2022-11-27T08:01:55.780Z,21.17
2022-11-27T08:04:59.087Z,21.17
2022-11-27T08:08:04.416Z,21.11
2022-11-27T08:11:16.673Z,21.13
2022-11-27T08:14:20.420Z,21.16
2022-11-27T08:17:23.426Z,21.15
2022-11-27T08:20:26.775Z,21.14
2022-11-27T08:23:29.936Z,21.07
2022-11-27T08:26:34.493Z,21.11
2022-11-27T08:29:38.029Z,21.06
2022-11-27T08:32:42.931Z,21.04
2022-11-27T08:35:49.728Z,21.00
2022-11-27T08:38:53.087Z,20.98
2022-11-27T08:41:57.571Z,21.10
2022-11-27T08:45:00.599Z,20.99
2022-11-27T08:48:03.684Z,20.96
2022-11-27T08:51:08.398Z,21.04
2022-11-27T08:54:12.013Z,21.08
2022-11-27T08:57:18.376Z,21.16
2022-11-27T09:00:27.582Z,21.17
2022-11-27T09:03:31.122Z,21.21
2022-11-27T09:06:36.357Z,21.14
2022-11-27T09:09:39.424Z,21.25
2022-11-27T09:12:44.683Z,21.26
2022-11-27T09:15:47.683Z,21.26
2022-11-27T09:18:53.057Z,21.28
2022-11-27T09:21:56.255Z,21.22
2022-11-27T09:24:59.463Z,21.16
2022-11-27T09:28:04.117Z,21.10
2022-11-27T09:31:09.043Z,21.27
2022-11-27T09:34:12.077Z,21.31
2022-11-27T09:37:15.181Z,21.35
2022-11-27T09:40:18.811Z,21.36
2022-11-27T09:43:31.467Z,21.41
2022-11-27T09:46:38.533Z,21.43
2022-11-27T09:49:47.388Z,21.43
2022-11-27T09:52:55.193Z,21.45
2022-11-27T09:56:00.260Z,21.43
2022-11-27T09:59:12.227Z,21.32
2022-11-27T10:02:19.159Z,21.39
2022-11-27T10:05:25.126Z,21.37
2022-11-27T10:08:41.127Z,21.35
2022-11-27T10:11:53.645Z,21.34
2022-11-27T10:15:08.721Z,21.32
2022-11-27T10:18:18.892Z,21.31
2022-11-27T10:21:30.888Z,21.30
2022-11-27T10:24:43.196Z,21.24
2022-11-27T10:27:53.090Z,21.26
2022-11-27T10:31:02.053Z,21.30
2022-11-27T10:34:16.799Z,21.30
2022-11-27T10:37:25.799Z,21.31
2022-11-27T10:40:32.850Z,21.32
2022-11-27T10:43:36.097Z,21.31
2022-11-27T10:46:41.378Z,21.30
2022-11-27T10:49:46.120Z,21.34
2022-11-27T10:52:55.065Z,21.38
2022-11-27T10:56:43.514Z,21.39
2022-11-27T10:59:51.630Z,21.40
2022-11-27T11:03:03.173Z,21.28
2022-11-27T11:06:20.506Z,21.31
2022-11-27T11:09:27.284Z,21.33
2022-11-27T11:12:30.425Z,21.33
2022-11-27T11:15:33.753Z,21.42
2022-11-27T11:18:46.321Z,21.43
2022-11-27T11:21:49.461Z,21.44
2022-11-27T11:24:54.632Z,21.46
2022-11-27T11:27:57.812Z,21.46
2022-11-27T11:31:04.853Z,21.48
2022-11-27T11:34:21.749Z,21.55
2022-11-27T11:37:27.664Z,21.54
2022-11-27T11:40:32.514Z,21.54
2022-11-27T11:43:37.659Z,21.50
2022-11-27T11:46:40.740Z,21.54
2022-11-27T11:49:45.303Z,21.52
2022-11-27T11:52:59.460Z,21.50
2022-11-27T11:56:15.406Z,21.49
2022-11-27T11:59:27.365Z,21.44
2022-11-27T12:02:41.031Z,21.46
2022-11-27T12:06:00.253Z,21.44
2022-11-27T12:09:13.889Z,21.44
2022-11-27T12:12:32.159Z,21.40
2022-11-27T12:15:42.080Z,21.41
2022-11-27T12:18:56.602Z,21.38
2022-11-27T12:22:13.189Z,21.40
2022-11-27T12:25:29.827Z,21.39
2022-11-27T12:28:59.295Z,21.41
2022-11-27T12:32:22.784Z,21.39
2022-11-27T12:35:33.415Z,21.40
2022-11-27T12:38:52.662Z,21.38
2022-11-27T12:42:09.728Z,21.34
2022-11-27T12:45:20.655Z,21.37
2022-11-27T12:48:29.062Z,21.37
2022-11-27T12:51:38.700Z,21.37
2022-11-27T12:54:49.339Z,21.33
2022-11-27T12:57:56.441Z,21.37
2022-11-27T13:01:07.364Z,21.37
2022-11-27T13:04:19.815Z,21.39
2022-11-27T13:07:28.874Z,21.34
2022-11-27T13:10:37.288Z,21.37
2022-11-27T13:13:44.449Z,21.41
2022-11-27T13:16:51.656Z,21.40
2022-11-27T13:19:54.865Z,21.43
2022-11-27T13:22:58.073Z,21.44
2022-11-27T13:26:07.632Z,21.47
2022-11-27T13:29:19.065Z,21.47
2022-11-27T13:32:24.547Z,21.48
2022-11-27T13:35:31.768Z,21.50
2022-11-27T13:38:37.635Z,21.49
2022-11-27T13:41:43.798Z,21.49
2022-11-27T13:44:55.063Z,21.49
2022-11-27T13:48:00.712Z,21.48
2022-11-27T13:51:04.769Z,21.50
2022-11-27T13:54:09.222Z,21.51
2022-11-27T13:57:17.221Z,21.52
2022-11-27T14:00:31.589Z,21.49
2022-11-27T14:03:36.850Z,21.48
2022-11-27T14:06:43.600Z,21.48
2022-11-27T14:09:50.386Z,21.48
2022-11-27T14:12:57.768Z,21.50
2022-11-27T14:16:04.025Z,21.50
2022-11-27T14:19:24.068Z,21.47
2022-11-27T14:23:00.543Z,21.54
2022-11-27T14:26:11.996Z,21.52
2022-11-27T14:29:21.154Z,21.50
2022-11-27T14:32:24.369Z,21.51
2022-11-27T14:35:28.884Z,21.52
2022-11-27T14:38:34.736Z,21.55
2022-11-27T14:41:38.240Z,21.55
2022-11-27T14:44:42.824Z,21.53
2022-11-27T14:47:50.422Z,21.55
2022-11-27T14:50:55.300Z,21.56
2022-11-27T14:54:01.401Z,21.57
2022-11-27T14:57:06.065Z,21.57
2022-11-27T15:00:28.950Z,21.62
2022-11-27T15:03:32.646Z,20.82
2022-11-27T15:06:40.883Z,20.23
2022-11-27T15:09:47.257Z,20.14
2022-11-27T15:12:50.800Z,20.66
2022-11-27T15:16:03.833Z,21.15
2022-11-27T15:19:07.458Z,21.48
2022-11-27T15:22:17.776Z,21.68
2022-11-27T15:25:36.065Z,21.78
2022-11-27T15:28:43.510Z,21.88
2022-11-27T15:31:55.341Z,21.93
2022-11-27T15:35:02.145Z,22.02
2022-11-27T15:38:13.750Z,21.99
2022-11-27T15:41:24.605Z,22.02
2022-11-27T15:44:32.360Z,22.07
2022-11-27T15:47:41.683Z,22.05
2022-11-27T15:50:51.372Z,22.00
2022-11-27T15:53:56.564Z,21.95
2022-11-27T15:57:02.277Z,21.84
2022-11-27T16:00:11.126Z,21.75
2022-11-27T16:03:19.596Z,21.73
2022-11-27T16:06:24.927Z,21.80
2022-11-27T16:09:31.273Z,21.82
2022-11-27T16:12:36.370Z,21.82
2022-11-27T16:15:41.436Z,21.78
2022-11-27T16:18:48.078Z,21.78
2022-11-27T16:21:53.957Z,21.78
2022-11-27T16:24:58.878Z,21.76
2022-11-27T16:28:03.696Z,21.74
2022-11-27T16:31:14.343Z,21.78
2022-11-27T16:34:26.642Z,21.78
2022-11-27T16:37:31.560Z,21.71
2022-11-27T16:40:36.507Z,21.78
2022-11-27T16:43:42.424Z,21.78
2022-11-27T16:46:48.489Z,21.75
2022-11-27T16:49:55.322Z,21.76
2022-11-27T16:53:01.244Z,21.77
2022-11-27T16:56:06.579Z,21.73
2022-11-27T16:59:13.118Z,21.70
2022-11-27T17:02:19.240Z,21.63
2022-11-27T17:05:27.313Z,21.66
2022-11-27T17:08:34.814Z,21.67
2022-11-27T17:11:45.110Z,21.74
2022-11-27T17:14:52.234Z,21.76
2022-11-27T17:17:59.910Z,21.76
2022-11-27T17:21:19.371Z,21.73
2022-11-27T17:24:26.132Z,21.74
2022-11-27T17:27:31.194Z,21.75
2022-11-27T17:30:39.424Z,21.77
2022-11-27T17:33:49.030Z,21.80
2022-11-27T17:36:58.790Z,21.81
2022-11-27T17:40:04.150Z,21.81
2022-11-27T17:43:10.344Z,21.84
2022-11-27T17:46:20.129Z,21.82
2022-11-27T17:49:25.229Z,21.81
2022-11-27T17:52:32.220Z,21.79
2022-11-27T17:55:41.393Z,21.77
2022-11-27T17:58:47.103Z,21.75
2022-11-27T18:01:55.514Z,21.72
2022-11-27T18:05:00.424Z,21.71
2022-11-27T18:08:07.699Z,21.72
2022-11-27T18:11:15.985Z,21.72
2022-11-27T18:14:22.332Z,21.69
2022-11-27T18:17:26.730Z,21.65
2022-11-27T18:20:36.696Z,21.64
2022-11-27T18:24:14.585Z,21.59
2022-11-27T18:27:10.638Z,21.59
2022-11-27T18:30:17.982Z,21.57
2022-11-27T18:33:27.265Z,21.55
2022-11-27T18:36:32.687Z,21.55
2022-11-27T18:39:44.706Z,21.59
2022-11-27T18:42:50.070Z,21.62
2022-11-27T18:45:59.597Z,21.61
2022-11-27T18:49:08.841Z,21.67
2022-11-27T18:52:15.817Z,21.71
2022-11-27T18:55:24.102Z,21.73
2022-11-27T18:58:30.853Z,21.68
2022-11-27T19:01:42.648Z,21.71
2022-11-27T19:04:49.490Z,21.76
2022-11-27T19:07:56.784Z,21.76
2022-11-27T19:11:10.026Z,21.78
2022-11-27T19:14:15.454Z,21.78
2022-11-27T19:17:24.731Z,21.59
2022-11-27T19:20:36.443Z,21.74
2022-11-27T19:23:42.996Z,21.74
2022-11-27T19:26:54.703Z,21.76
2022-11-27T19:30:02.400Z,21.73
2022-11-27T19:33:07.399Z,21.69
2022-11-27T19:36:16.635Z,21.64
2022-11-27T19:39:22.137Z,21.68
2022-11-27T19:42:30.214Z,21.66
2022-11-27T19:45:38.879Z,21.70
2022-11-27T19:48:44.130Z,21.73
2022-11-27T19:51:49.869Z,21.71
2022-11-27T19:54:55.985Z,21.68
2022-11-27T19:58:04.321Z,21.62
2022-11-27T20:01:13.172Z,21.58
2022-11-27T20:04:19.644Z,21.65
2022-11-27T20:07:27.889Z,21.66
2022-11-27T20:10:40.160Z,21.68
2022-11-27T20:13:49.969Z,21.70
2022-11-27T20:16:55.485Z,21.66
2022-11-27T20:20:02.166Z,21.65
2022-11-27T20:23:08.558Z,21.67
2022-11-27T20:26:15.983Z,21.69
2022-11-27T20:29:22.876Z,21.69
2022-11-27T20:32:31.904Z,21.65
2022-11-27T20:35:37.429Z,21.64
2022-11-27T20:38:46.379Z,21.69
2022-11-27T20:41:53.553Z,21.65
2022-11-27T20:45:04.605Z,21.74
2022-11-27T20:48:14.774Z,21.68
2022-11-27T20:51:21.762Z,21.62
2022-11-27T20:54:26.975Z,21.60
2022-11-27T20:57:31.804Z,21.58
2022-11-27T21:00:38.401Z,21.59
2022-11-27T21:03:43.492Z,21.56
2022-11-27T21:06:48.689Z,21.63
2022-11-27T21:09:54.046Z,21.63
2022-11-27T21:12:57.973Z,21.63
2022-11-27T21:16:03.855Z,21.58
2022-11-27T21:19:10.964Z,21.57
2022-11-27T21:22:16.089Z,21.70
2022-11-27T21:25:25.358Z,21.74
2022-11-27T21:28:30.658Z,21.74
2022-11-27T21:31:37.764Z,21.71
2022-11-27T21:34:41.529Z,21.74
2022-11-27T21:37:45.642Z,21.70
2022-11-27T21:40:49.564Z,21.72
2022-11-27T21:43:56.321Z,21.79
2022-11-27T21:47:01.699Z,21.83
2022-11-27T21:50:05.343Z,21.83
2022-11-27T21:53:08.467Z,21.81
2022-11-27T21:56:14.900Z,21.84
2022-11-27T21:59:18.078Z,21.82
2022-11-27T22:02:22.652Z,21.84
2022-11-27T22:05:25.757Z,21.82
2022-11-27T22:08:29.813Z,21.79
2022-11-27T22:11:33.980Z,21.84
2022-11-27T22:14:38.090Z,21.84
2022-11-27T22:17:43.130Z,21.62
2022-11-27T22:20:46.255Z,21.62
2022-11-27T22:23:49.727Z,21.63
2022-11-27T22:26:52.813Z,21.60
2022-11-27T22:29:55.902Z,21.60
2022-11-27T22:33:00.328Z,21.61
2022-11-27T22:36:12.293Z,21.61
2022-11-27T22:39:15.831Z,21.58
2022-11-27T22:42:18.913Z,21.56
2022-11-27T22:45:21.973Z,21.57
2022-11-27T22:48:26.451Z,21.57
2022-11-27T22:51:31.141Z,21.56
2022-11-27T22:54:34.189Z,21.52
2022-11-27T22:57:37.226Z,21.54
2022-11-27T23:00:40.300Z,21.57
2022-11-27T23:03:45.004Z,21.57
2022-11-27T23:06:48.655Z,21.56
2022-11-27T23:09:51.932Z,21.56
2022-11-27T23:12:55.002Z,21.54
2022-11-27T23:15:58.098Z,21.47
2022-11-27T23:19:02.537Z,21.54
2022-11-27T23:22:05.645Z,21.52
2022-11-27T23:25:09.908Z,21.54
2022-11-27T23:28:13.047Z,21.52
2022-11-27T23:31:34.083Z,21.52
2022-11-27T23:34:38.614Z,21.52
2022-11-27T23:37:41.817Z,21.55
2022-11-27T23:40:44.879Z,21.49
2022-11-27T23:43:48.381Z,21.54
2022-11-27T23:46:51.445Z,21.54
2022-11-27T23:49:55.923Z,21.51
2022-11-27T23:52:59.001Z,21.49
2022-11-27T23:56:03.357Z,21.51
2022-11-27T23:59:06.754Z,21.46
